Time;durP1;ratioP1;P1;durP2;ratioP2;P2;SDS_P1;SDS_P2;PMS_P1;PMS_P2;Temp;Humidity;BMP_temperature;BMP_pressure;BME280_temperature;BME280_humidity;BME280_pressure;Samples;Min_cycle;Max_cycle;Signal;HPM_P1;HPM_P2
2023/07/25 00:01:24;;;;;;;4.00;3.30;;;25.80;52.50;;;;;;4973611;28;20240;-70
2023/07/25 00:03:49;;;;;;;7.67;3.93;;;25.80;52.50;;;;;;4974233;28;20181;-70
2023/07/25 00:06:15;;;;;;;8.00;4.63;;;25.80;52.50;;;;;;4975129;28;20224;-70
2023/07/25 00:08:41;;;;;;;7.20;4.27;;;25.80;52.60;;;;;;4958566;28;20325;-68
2023/07/25 00:11:12;;;;;;;7.87;5.27;;;25.80;52.60;;;;;;4955207;29;20234;-69
2023/07/25 00:13:38;;;;;;;6.60;3.67;;;25.70;52.50;;;;;;4955189;29;20261;-69
2023/07/25 00:16:04;;;;;;;4.87;3.47;;;25.70;52.50;;;;;;4954950;29;20903;-70
2023/07/25 00:18:29;;;;;;;7.23;2.97;;;25.70;52.50;;;;;;4950495;28;20205;-69
2023/07/25 00:20:55;;;;;;;4.87;3.27;;;25.70;52.40;;;;;;4974288;28;20229;-69
2023/07/25 00:23:21;;;;;;;5.10;2.37;;;25.70;52.40;;;;;;4956652;28;20269;-70
2023/07/25 00:25:47;;;;;;;5.70;2.70;;;25.70;52.30;;;;;;4973991;28;20170;-70
2023/07/25 00:28:12;;;;;;;3.50;2.80;;;25.70;52.20;;;;;;4963011;28;20655;-70
2023/07/25 00:30:39;;;;;;;3.00;2.30;;;25.70;52.10;;;;;;4954156;28;20202;-69
2023/07/25 00:33:05;;;;;;;2.70;2.30;;;25.70;52.10;;;;;;4954659;28;20178;-70
2023/07/25 00:35:30;;;;;;;3.23;2.40;;;25.60;52.00;;;;;;4954521;29;20418;-71
2023/07/25 00:37:56;;;;;;;2.50;2.20;;;25.60;51.90;;;;;;4962012;28;20456;-70
2023/07/25 00:40:22;;;;;;;3.10;2.13;;;25.60;51.90;;;;;;4973625;28;20197;-70
2023/07/25 00:42:57;;;;;;;2.27;2.03;;;25.70;51.90;;;;;;4973861;28;20543;-70
2023/07/25 00:45:25;;;;;;;2.30;2.03;;;25.60;51.70;;;;;;4973491;28;20216;-70
2023/07/25 00:47:52;;;;;;;3.07;2.00;;;25.60;51.70;;;;;;4966239;28;20418;-69
2023/07/25 00:50:17;;;;;;;5.80;2.53;;;25.60;51.70;;;;;;4937138;29;21035;-70
2023/07/25 00:52:43;;;;;;;2.20;1.90;;;25.60;51.60;;;;;;4954890;29;20445;-70
2023/07/25 00:55:09;;;;;;;4.10;2.00;;;25.60;51.60;;;;;;4954463;29;20624;-70
2023/07/25 00:57:34;;;;;;;3.33;2.30;;;25.60;51.60;;;;;;4942018;28;20169;-70
2023/07/25 01:00:00;;;;;;;2.83;2.20;;;25.60;51.60;;;;;;4973786;28;20675;-70
2023/07/25 01:02:25;;;;;;;2.77;2.33;;;25.60;51.60;;;;;;4973518;28;20540;-70
2023/07/25 01:04:51;;;;;;;3.40;2.20;;;25.60;51.60;;;;;;4973724;28;20181;-71
2023/07/25 01:07:17;;;;;;;2.73;2.33;;;25.60;51.50;;;;;;4971061;28;20183;-70
2023/07/25 01:09:45;;;;;;;3.03;2.30;;;25.60;51.50;;;;;;4954448;28;20212;-69
2023/07/25 01:12:12;;;;;;;4.37;2.17;;;25.60;51.50;;;;;;4954532;29;20510;-69
2023/07/25 01:14:39;;;;;;;3.90;2.70;;;25.60;51.50;;;;;;4954478;29;20514;-69
2023/07/25 01:17:10;;;;;;;3.50;2.73;;;25.50;51.40;;;;;;4954892;28;20516;-70
2023/07/25 01:19:39;;;;;;;6.07;3.10;;;25.50;51.40;;;;;;4973685;28;20472;-69
2023/07/25 01:22:05;;;;;;;4.47;2.90;;;25.60;52.10;;;;;;4973976;28;20910;-69
2023/07/25 01:24:31;;;;;;;4.10;3.10;;;25.50;51.40;;;;;;4973842;28;20413;-69
2023/07/25 01:26:56;;;;;;;5.23;2.93;;;25.50;51.50;;;;;;4973603;28;20447;-69
2023/07/25 01:29:22;;;;;;;5.00;3.23;;;25.50;51.50;;;;;;4954896;28;20198;-69
2023/07/25 01:31:48;;;;;;;2.87;2.50;;;25.50;51.50;;;;;;4954355;28;20198;-70
2023/07/25 01:34:13;;;;;;;2.90;2.30;;;25.50;51.50;;;;;;4954253;29;20426;-69
2023/07/25 01:36:39;;;;;;;3.00;2.47;;;25.50;52.20;;;;;;4954270;29;20640;-68
2023/07/25 01:39:05;;;;;;;3.33;2.43;;;25.50;51.60;;;;;;4968905;28;20213;-69
2023/07/25 01:41:30;;;;;;;3.20;2.70;;;25.50;51.60;;;;;;4973165;28;20185;-69
2023/07/25 01:43:56;;;;;;;3.07;2.40;;;25.50;51.70;;;;;;4976601;28;20197;-70
2023/07/25 01:46:21;;;;;;;4.53;2.77;;;25.50;51.70;;;;;;4976813;28;20177;-69
2023/07/25 01:48:47;;;;;;;3.60;2.33;;;25.50;51.80;;;;;;4963341;28;20556;-69
2023/07/25 01:51:13;;;;;;;3.33;2.40;;;25.50;51.80;;;;;;4958773;28;20190;-69
2023/07/25 01:53:38;;;;;;;2.80;2.30;;;25.50;51.90;;;;;;4957709;28;20439;-70
2023/07/25 01:56:04;;;;;;;3.70;2.80;;;25.50;51.90;;;;;;4957351;29;20600;-70
2023/07/25 01:58:31;;;;;;;2.33;2.13;;;25.50;51.90;;;;;;4950517;28;20217;-69
2023/07/25 02:00:59;;;;;;;2.40;2.00;;;25.50;51.90;;;;;;4976739;28;20193;-68
2023/07/25 02:03:25;;;;;;;3.37;2.77;;;25.50;51.90;;;;;;4976741;28;20898;-70
2023/07/25 02:05:51;;;;;;;5.30;2.33;;;25.50;52.00;;;;;;4976698;28;20468;-69
2023/07/25 02:08:18;;;;;;;3.37;2.57;;;25.50;52.00;;;;;;4963951;28;20854;-69
2023/07/25 02:10:43;;;;;;;2.77;2.47;;;25.50;52.00;;;;;;4957273;28;20198;-70
2023/07/25 02:13:09;;;;;;;3.03;2.40;;;25.50;52.60;;;;;;4957179;29;20918;-70
2023/07/25 02:15:36;;;;;;;2.50;2.30;;;25.50;52.00;;;;;;4957460;29;20186;-70
2023/07/25 02:18:02;;;;;;;2.20;2.00;;;25.50;52.10;;;;;;4966665;28;20205;-70
2023/07/25 02:20:31;;;;;;;2.30;2.10;;;25.50;52.10;;;;;;4959144;28;20465;-69
2023/07/25 02:22:57;;;;;;;3.40;2.80;;;25.50;52.10;;;;;;4976589;28;20401;-69
2023/07/25 02:25:25;;;;;;;3.10;2.20;;;25.50;52.10;;;;;;4976815;28;20533;-70
2023/07/25 02:27:50;;;;;;;2.70;2.50;;;25.50;52.10;;;;;;4969211;28;20426;-69
2023/07/25 02:30:16;;;;;;;3.13;2.37;;;25.50;52.10;;;;;;4958067;29;20433;-69
2023/07/25 02:32:41;;;;;;;2.93;2.27;;;25.60;52.20;;;;;;4941204;29;20232;-69
2023/07/25 02:35:07;;;;;;;4.00;2.80;;;25.60;52.20;;;;;;4958967;29;20581;-70
2023/07/25 02:37:32;;;;;;;3.03;2.37;;;25.50;52.20;;;;;;4963081;28;20174;-70
2023/07/25 02:39:58;;;;;;;3.20;2.50;;;25.60;52.30;;;;;;4978038;28;20244;-70
2023/07/25 02:42:23;;;;;;;4.30;2.87;;;25.50;52.20;;;;;;4978616;28;20178;-70
2023/07/25 02:44:49;;;;;;;3.07;2.77;;;25.50;52.30;;;;;;4978196;28;20189;-70
2023/07/25 02:47:15;;;;;;;3.70;2.47;;;25.50;52.50;;;;;;4975468;28;20268;-70
2023/07/25 02:49:40;;;;;;;3.30;2.80;;;25.50;52.30;;;;;;4959053;29;20222;-69
2023/07/25 02:52:06;;;;;;;3.73;2.90;;;25.50;52.40;;;;;;4958836;29;20185;-69
2023/07/25 02:54:32;;;;;;;2.93;2.30;;;25.50;52.40;;;;;;4957601;28;20174;-69
2023/07/25 02:56:57;;;;;;;3.20;2.73;;;25.50;52.40;;;;;;4958436;28;20501;-70
2023/07/25 02:59:23;;;;;;;4.07;2.80;;;25.50;52.40;;;;;;4977878;28;20209;-70
2023/07/25 03:01:48;;;;;;;3.83;2.30;;;25.50;52.40;;;;;;4977390;28;20188;-69
2023/07/25 03:04:14;;;;;;;5.90;2.77;;;25.50;52.40;;;;;;4977868;28;20178;-70
2023/07/25 03:06:55;;;;;;;3.20;2.37;;;25.50;52.40;;;;;;4977298;28;20193;-70
2023/07/25 03:09:20;;;;;;;3.53;2.70;;;25.50;52.40;;;;;;4957971;28;20297;-70
2023/07/25 03:11:46;;;;;;;3.17;2.47;;;25.60;53.10;;;;;;4940363;29;20470;-69
2023/07/25 03:14:15;;;;;;;4.73;2.80;;;25.50;52.50;;;;;;4957766;29;20694;-70
2023/07/25 03:16:40;;;;;;;3.40;2.40;;;25.50;52.50;;;;;;4957329;29;20182;-69
2023/07/25 03:19:06;;;;;;;3.47;2.67;;;25.50;52.60;;;;;;4973663;28;20495;-69
2023/07/25 03:21:31;;;;;;;4.73;2.70;;;25.50;52.50;;;;;;4976574;28;20176;-70
2023/07/25 03:23:57;;;;;;;3.80;2.60;;;25.50;52.50;;;;;;4976640;28;20166;-70
2023/07/25 03:26:23;;;;;;;3.40;2.73;;;25.50;52.50;;;;;;4977052;28;20674;-70
2023/07/25 03:28:48;;;;;;;3.10;2.73;;;25.60;52.70;;;;;;4962160;28;20457;-69
2023/07/25 03:31:14;;;;;;;3.10;2.77;;;25.50;52.70;;;;;;4940474;29;20206;-69
2023/07/25 03:33:40;;;;;;;3.20;2.50;;;25.50;52.60;;;;;;4957888;29;20182;-70
2023/07/25 03:36:07;;;;;;;3.43;2.43;;;25.60;52.70;;;;;;4957660;29;20229;-70
2023/07/25 03:38:33;;;;;;;3.60;2.77;;;25.50;52.70;;;;;;4969544;28;20496;-70
2023/07/25 03:40:58;;;;;;;4.70;2.77;;;25.60;52.70;;;;;;4959363;28;20917;-69
2023/07/25 03:43:24;;;;;;;3.00;2.20;;;25.50;52.70;;;;;;4976810;28;20188;-70
2023/07/25 03:45:50;;;;;;;3.20;2.90;;;25.50;52.60;;;;;;4976562;28;20181;-70
2023/07/25 03:48:15;;;;;;;2.63;2.43;;;25.50;52.70;;;;;;4966300;28;20174;-69
2023/07/25 03:50:41;;;;;;;3.10;2.27;;;25.50;52.70;;;;;;4956646;29;20202;-69
2023/07/25 03:53:06;;;;;;;2.80;2.20;;;25.60;52.80;;;;;;4957138;29;20264;-69
2023/07/25 03:55:32;;;;;;;2.87;2.53;;;25.50;52.70;;;;;;4956480;29;20170;-69
2023/07/25 03:57:58;;;;;;;3.73;2.80;;;25.50;52.70;;;;;;4963132;28;20582;-70
2023/07/25 04:00:23;;;;;;;3.30;2.40;;;25.50;52.70;;;;;;4976097;28;20264;-69
2023/07/25 04:02:49;;;;;;;3.23;2.93;;;25.50;52.70;;;;;;4976105;28;20190;-70
2023/07/25 04:05:15;;;;;;;3.30;2.67;;;25.50;52.80;;;;;;4975893;28;20703;-69
2023/07/25 04:07:40;;;;;;;3.87;2.70;;;25.50;52.80;;;;;;4968092;28;20556;-70
2023/07/25 04:10:06;;;;;;;3.83;2.20;;;25.50;52.90;;;;;;4955855;28;20449;-69
2023/07/25 04:12:32;;;;;;;4.10;3.00;;;25.50;52.90;;;;;;4956161;29;20178;-69
2023/07/25 04:14:58;;;;;;;4.77;2.40;;;25.50;52.90;;;;;;4956218;29;20422;-70
2023/07/25 04:17:23;;;;;;;3.13;2.67;;;25.50;52.90;;;;;;4960334;28;20196;-70
2023/07/25 04:19:49;;;;;;;3.50;2.70;;;25.50;53.00;;;;;;4976012;28;20209;-70
2023/07/25 04:22:15;;;;;;;4.77;2.90;;;25.50;53.00;;;;;;4975542;28;20178;-69
2023/07/25 04:24:40;;;;;;;3.40;2.70;;;25.50;53.10;;;;;;4958799;28;20277;-69
2023/07/25 04:27:06;;;;;;;3.13;2.60;;;25.50;53.00;;;;;;4974215;28;20170;-70
2023/07/25 04:29:32;;;;;;;2.60;2.40;;;25.50;53.00;;;;;;4957043;29;20261;-70
2023/07/25 04:31:57;;;;;;;3.43;2.70;;;25.50;53.00;;;;;;4957001;28;20939;-70
2023/07/25 04:34:23;;;;;;;2.80;2.40;;;25.50;53.00;;;;;;4957380;29;20184;-70
2023/07/25 04:36:49;;;;;;;3.50;2.80;;;25.50;53.00;;;;;;4938610;29;20197;-70
2023/07/25 04:39:14;;;;;;;2.10;1.90;;;25.50;53.10;;;;;;4972445;28;20217;-70
2023/07/25 04:41:40;;;;;;;3.10;2.50;;;25.50;53.60;;;;;;4976025;28;20186;-71
2023/07/25 04:44:06;;;;;;;4.57;3.23;;;25.50;53.10;;;;;;4976175;28;20248;-70
2023/07/25 04:46:32;;;;;;;4.20;2.40;;;25.50;53.10;;;;;;4975914;28;20638;-70
2023/07/25 04:48:57;;;;;;;4.63;2.57;;;25.50;53.00;;;;;;4961154;28;20437;-70
2023/07/25 04:51:23;;;;;;;4.57;2.70;;;25.50;53.10;;;;;;4956457;29;20317;-70
2023/07/25 04:53:49;;;;;;;3.50;2.43;;;25.50;53.10;;;;;;4956336;29;20191;-70
2023/07/25 04:56:15;;;;;;;5.80;2.97;;;25.60;53.10;;;;;;4956386;29;20210;-71
2023/07/25 04:58:43;;;;;;;3.93;2.50;;;25.50;53.10;;;;;;4950140;28;20515;-70
2023/07/25 05:01:09;;;;;;;3.20;2.30;;;25.50;53.70;;;;;;4957146;28;20189;-70
2023/07/25 05:03:35;;;;;;;5.77;3.00;;;25.50;53.10;;;;;;4974390;28;20405;-70
2023/07/25 05:06:01;;;;;;;4.00;2.87;;;25.50;53.10;;;;;;4956485;28;20501;-69
2023/07/25 05:08:27;;;;;;;3.83;2.60;;;25.60;53.10;;;;;;4964455;28;20258;-69
2023/07/25 05:10:53;;;;;;;4.10;3.07;;;25.50;53.10;;;;;;4954853;29;20229;-71
2023/07/25 05:13:19;;;;;;;5.90;2.83;;;25.50;53.00;;;;;;4954430;29;20421;-70
2023/07/25 05:15:45;;;;;;;5.87;3.23;;;25.50;53.10;;;;;;4954472;29;20777;-70
2023/07/25 05:18:10;;;;;;;4.27;2.50;;;25.50;53.10;;;;;;4939437;29;20216;-69
2023/07/25 05:20:36;;;;;;;3.03;2.40;;;25.50;53.10;;;;;;4940927;29;20667;-70
2023/07/25 05:23:02;;;;;;;3.60;2.53;;;25.60;53.10;;;;;;4957984;29;20249;-70
2023/07/25 05:25:27;;;;;;;3.33;2.60;;;25.50;53.00;;;;;;4958177;29;20170;-70
2023/07/25 05:27:53;;;;;;;3.40;2.90;;;25.60;53.10;;;;;;4958379;29;20170;-70
2023/07/25 05:30:18;;;;;;;4.30;2.70;;;25.50;53.00;;;;;;4958620;29;20199;-70
2023/07/25 05:32:45;;;;;;;5.03;2.97;;;25.60;53.10;;;;;;4958102;29;20174;-70
2023/07/25 05:35:10;;;;;;;2.83;2.47;;;25.60;53.10;;;;;;4958178;29;20175;-68
2023/07/25 05:37:37;;;;;;;5.23;2.90;;;25.60;53.10;;;;;;4958299;29;20781;-70
2023/07/25 05:40:05;;;;;;;3.63;2.60;;;25.60;53.00;;;;;;4958416;29;20202;-70
2023/07/25 05:42:32;;;;;;;4.77;3.17;;;25.60;53.00;;;;;;4941084;29;20433;-70
2023/07/25 05:44:59;;;;;;;5.50;2.73;;;25.60;53.00;;;;;;4940799;29;20513;-70
2023/07/25 05:47:25;;;;;;;3.73;2.23;;;25.60;53.00;;;;;;4958156;29;20757;-70
2023/07/25 05:49:52;;;;;;;3.33;2.10;;;25.60;53.00;;;;;;4958696;29;20434;-69
2023/07/25 05:52:18;;;;;;;3.10;2.53;;;25.60;53.00;;;;;;4958308;29;20174;-70
2023/07/25 05:54:44;;;;;;;2.73;2.47;;;25.60;53.00;;;;;;4958167;29;20501;-69
2023/07/25 05:57:11;;;;;;;3.27;2.40;;;25.60;53.00;;;;;;4940747;29;20178;-69
2023/07/25 05:59:37;;;;;;;7.30;2.87;;;25.60;52.90;;;;;;4957989;29;20519;-70
2023/07/25 06:02:04;;;;;;;3.23;2.60;;;25.60;53.00;;;;;;4957842;29;20882;-70
2023/07/25 06:04:30;;;;;;;2.93;2.63;;;25.60;53.00;;;;;;4940975;29;20262;-69
2023/07/25 06:06:55;;;;;;;3.53;2.43;;;25.60;52.90;;;;;;4958376;29;20450;-71
2023/07/25 06:09:21;;;;;;;3.30;2.63;;;25.60;52.90;;;;;;4958519;29;20437;-70
2023/07/25 06:11:46;;;;;;;4.60;2.60;;;25.60;53.00;;;;;;4957743;29;20253;-70
2023/07/25 06:14:12;;;;;;;3.60;2.50;;;25.60;53.00;;;;;;4958008;29;20550;-70
2023/07/25 06:16:38;;;;;;;3.10;2.77;;;25.60;53.10;;;;;;4941003;29;20182;-70
2023/07/25 06:19:03;;;;;;;3.47;2.63;;;25.60;53.10;;;;;;4957834;29;20210;-70
2023/07/25 06:21:30;;;;;;;4.43;3.00;;;25.60;53.10;;;;;;4958215;29;20206;-70
2023/07/25 06:23:56;;;;;;;3.13;2.73;;;25.60;53.10;;;;;;4940495;29;20182;-70
2023/07/25 06:26:22;;;;;;;4.00;2.30;;;25.60;53.10;;;;;;4958273;29;20416;-70
2023/07/25 06:28:47;;;;;;;3.90;2.50;;;25.60;53.10;;;;;;4940477;29;20178;-70
2023/07/25 06:31:13;;;;;;;3.70;2.30;;;25.60;53.10;;;;;;4958088;28;20238;-70
2023/07/25 06:33:39;;;;;;;3.93;2.70;;;25.60;53.10;;;;;;4958027;29;20178;-70
2023/07/25 06:36:04;;;;;;;3.73;2.50;;;25.60;53.10;;;;;;4940500;29;20193;-70
2023/07/25 06:38:31;;;;;;;3.17;2.40;;;25.60;53.10;;;;;;4957517;28;20195;-70
2023/07/25 06:40:57;;;;;;;3.00;2.50;;;25.60;53.10;;;;;;4940580;29;20557;-71
2023/07/25 06:43:23;;;;;;;3.10;2.10;;;25.60;53.20;;;;;;4957397;29;20421;-70
2023/07/25 06:45:50;;;;;;;3.10;2.30;;;25.60;53.10;;;;;;4957643;29;20270;-71
2023/07/25 06:48:16;;;;;;;3.90;2.83;;;25.60;53.10;;;;;;4957242;29;20215;-70
2023/07/25 06:50:42;;;;;;;2.87;2.57;;;25.60;53.10;;;;;;4939996;29;20946;-70
2023/07/25 06:53:07;;;;;;;2.80;2.50;;;25.60;53.10;;;;;;4956909;29;20210;-70
2023/07/25 06:55:34;;;;;;;3.37;2.37;;;25.60;53.20;;;;;;4957072;29;20186;-71
2023/07/25 06:58:00;;;;;;;2.50;2.17;;;25.60;53.10;;;;;;4957001;29;20272;-70
2023/07/25 07:00:27;;;;;;;3.50;2.60;;;25.60;53.10;;;;;;4939690;29;20442;-70
2023/07/25 07:02:54;;;;;;;3.10;2.27;;;25.60;53.10;;;;;;4957426;29;20421;-70
2023/07/25 07:05:19;;;;;;;2.87;2.40;;;25.60;53.10;;;;;;4957573;29;20414;-70
2023/07/25 07:07:47;;;;;;;2.43;1.80;;;25.60;53.10;;;;;;4957473;29;20402;-70
2023/07/25 07:10:12;;;;;;;2.97;2.67;;;25.60;53.10;;;;;;4957071;29;20695;-70
2023/07/25 07:12:45;;;;;;;2.77;2.40;;;25.60;53.10;;;;;;4957201;29;20484;-70
2023/07/25 07:15:14;;;;;;;3.53;2.40;;;25.60;53.10;;;;;;4957691;29;20166;-70
2023/07/25 07:17:42;;;;;;;2.40;1.90;;;25.60;53.00;;;;;;4957588;29;20418;-70
2023/07/25 07:20:08;;;;;;;2.80;2.13;;;25.60;53.10;;;;;;4956729;29;20470;-70
2023/07/25 07:22:36;;;;;;;2.73;2.10;;;25.60;53.10;;;;;;4957338;29;20525;-70
2023/07/25 07:25:02;;;;;;;2.63;2.30;;;25.60;53.10;;;;;;4957486;29;20438;-70
2023/07/25 07:27:28;;;;;;;2.67;2.47;;;25.60;53.10;;;;;;4956929;29;20935;-70
2023/07/25 07:29:53;;;;;;;2.87;2.43;;;25.60;53.10;;;;;;4956622;29;20273;-70
2023/07/25 07:32:19;;;;;;;3.10;2.70;;;25.60;53.10;;;;;;4939434;29;20294;-70
2023/07/25 07:34:45;;;;;;;2.87;2.27;;;25.60;53.10;;;;;;4939413;29;20179;-69
2023/07/25 07:37:10;;;;;;;3.90;2.30;;;25.60;53.10;;;;;;4956461;29;20209;-70
2023/07/25 07:39:38;;;;;;;3.30;2.30;;;25.60;53.10;;;;;;4956552;28;20210;-70
2023/07/25 07:42:04;;;;;;;3.20;2.90;;;25.60;53.10;;;;;;4939842;29;20418;-70
2023/07/25 07:44:29;;;;;;;3.27;2.40;;;25.60;53.10;;;;;;4956656;29;20523;-70
2023/07/25 07:46:55;;;;;;;2.50;2.27;;;25.60;53.10;;;;;;4956973;29;20518;-70
2023/07/25 07:49:21;;;;;;;3.13;2.47;;;25.60;53.10;;;;;;4956849;29;20750;-69
2023/07/25 07:51:46;;;;;;;2.60;2.40;;;25.60;53.10;;;;;;4956759;29;20179;-70
2023/07/25 07:54:12;;;;;;;2.40;2.20;;;25.60;53.00;;;;;;4956574;29;20182;-70
2023/07/25 07:56:38;;;;;;;2.60;2.40;;;25.60;53.10;;;;;;4956714;29;20182;-69
2023/07/25 07:59:03;;;;;;;2.60;2.17;;;25.60;53.10;;;;;;4957046;29;20622;-70
2023/07/25 08:01:29;;;;;;;2.30;2.10;;;25.60;53.10;;;;;;4956616;29;20666;-70
2023/07/25 08:03:56;;;;;;;2.27;1.87;;;25.60;53.10;;;;;;4957007;29;20178;-70
2023/07/25 08:06:21;;;;;;;2.70;2.30;;;25.70;53.10;;;;;;4956508;29;20174;-70
2023/07/25 08:08:47;;;;;;;3.40;2.30;;;25.70;53.10;;;;;;4956687;29;20496;-70
2023/07/25 08:11:13;;;;;;;2.33;2.13;;;25.60;53.10;;;;;;4938612;29;20548;-69
2023/07/25 08:13:38;;;;;;;3.50;1.90;;;25.70;53.00;;;;;;4955499;29;20221;-70
2023/07/25 08:16:06;;;;;;;2.53;2.17;;;25.70;53.10;;;;;;4955415;29;20174;-70
2023/07/25 08:18:33;;;;;;;2.67;2.13;;;25.70;53.00;;;;;;4955475;29;20202;-70
2023/07/25 08:21:00;;;;;;;2.30;1.80;;;25.70;53.00;;;;;;4955252;29;20445;-70
2023/07/25 08:23:26;;;;;;;2.00;1.80;;;25.60;52.90;;;;;;4938306;29;20540;-70
2023/07/25 08:25:55;;;;;;;3.50;2.20;;;25.70;53.00;;;;;;4954892;29;20410;-70
2023/07/25 08:28:20;;;;;;;2.43;2.00;;;25.70;53.00;;;;;;4955063;29;20436;-70
2023/07/25 08:30:47;;;;;;;3.17;2.03;;;25.70;52.90;;;;;;4954939;28;20457;-70
2023/07/25 08:33:15;;;;;;;2.03;1.83;;;25.70;52.90;;;;;;4954865;29;20418;-70
2023/07/25 08:35:41;;;;;;;5.13;2.30;;;25.70;52.90;;;;;;4955038;29;20592;-70
2023/07/25 08:38:07;;;;;;;2.47;2.27;;;25.70;52.90;;;;;;4954814;29;20417;-70
2023/07/25 08:40:33;;;;;;;2.10;1.90;;;25.70;52.90;;;;;;4954658;29;20462;-69
2023/07/25 08:43:07;;;;;;;2.30;2.10;;;25.70;52.90;;;;;;4954714;29;20205;-69
2023/07/25 08:45:35;;;;;;;1.97;1.70;;;25.70;52.90;;;;;;4954904;29;20154;-70
2023/07/25 08:48:04;;;;;;;2.33;2.10;;;25.70;52.80;;;;;;4954412;29;20557;-70
2023/07/25 08:50:31;;;;;;;5.33;2.13;;;25.70;52.90;;;;;;4937788;29;20440;-69
2023/07/25 08:52:59;;;;;;;2.90;2.00;;;25.70;52.90;;;;;;4959370;28;20413;-70
2023/07/25 08:55:25;;;;;;;2.40;1.90;;;25.70;52.90;;;;;;4959285;29;20414;-69
2023/07/25 08:57:52;;;;;;;2.23;2.03;;;25.60;52.80;;;;;;4959268;29;20406;-69
2023/07/25 09:00:20;;;;;;;3.10;1.90;;;25.70;52.90;;;;;;4959374;28;20556;-70
2023/07/25 09:02:46;;;;;;;2.43;1.90;;;25.60;52.80;;;;;;4960177;29;20414;-70
2023/07/25 09:05:12;;;;;;;4.27;2.30;;;25.70;52.80;;;;;;4941581;29;20426;-69
2023/07/25 09:07:40;;;;;;;23.73;5.43;;;25.60;52.70;;;;;;4957643;29;20433;-69
2023/07/25 09:10:06;;;;;;;5.63;3.10;;;25.60;52.70;;;;;;4958458;29;20442;-71
2023/07/25 09:12:32;;;;;;;2.63;2.00;;;25.70;52.80;;;;;;4957845;29;20426;-69
2023/07/25 09:14:57;;;;;;;2.03;1.70;;;25.70;52.80;;;;;;4957999;29;20416;-69
2023/07/25 09:17:23;;;;;;;2.77;1.80;;;25.70;52.80;;;;;;4957750;29;20210;-70
2023/07/25 09:19:49;;;;;;;2.07;1.70;;;25.70;52.90;;;;;;4957466;29;20206;-69
2023/07/25 09:22:31;;;;;;;2.33;1.77;;;25.70;52.80;;;;;;4940497;29;20194;-69
2023/07/25 09:24:58;;;;;;;3.40;1.60;;;25.70;52.80;;;;;;4957608;29;20185;-70
2023/07/25 09:27:25;;;;;;;2.13;1.90;;;25.70;52.90;;;;;;4957665;29;20413;-69
2023/07/25 09:29:52;;;;;;;2.50;2.03;;;25.70;52.90;;;;;;4957773;29;20434;-70
2023/07/25 09:32:24;;;;;;;1.73;1.63;;;25.70;53.00;;;;;;4940502;29;20472;-68
2023/07/25 09:35:00;;;;;;;2.27;1.70;;;25.70;53.00;;;;;;4957386;29;20441;-69
2023/07/25 09:37:28;;;;;;;1.90;1.50;;;25.70;53.00;;;;;;4957410;29;20394;-70
2023/07/25 09:39:54;;;;;;;2.97;2.00;;;25.70;53.10;;;;;;4940030;29;20464;-69
2023/07/25 09:42:22;;;;;;;2.00;1.80;;;25.70;53.10;;;;;;4957306;29;20794;-69
2023/07/25 09:44:48;;;;;;;4.07;1.70;;;25.70;53.10;;;;;;4957551;29;20418;-70
2023/07/25 09:47:24;;;;;;;3.73;1.97;;;25.70;53.00;;;;;;4957880;29;20771;-69
2023/07/25 09:49:54;;;;;;;2.23;1.90;;;25.70;53.10;;;;;;4941421;29;21005;-70
2023/07/25 09:52:25;;;;;;;1.80;1.67;;;25.70;53.20;;;;;;4957726;29;20406;-70
2023/07/25 09:54:51;;;;;;;2.47;2.00;;;25.70;53.20;;;;;;4957223;29;20772;-69
2023/07/25 09:57:17;;;;;;;1.70;1.60;;;25.70;53.30;;;;;;4957092;29;20418;-70
2023/07/25 09:59:42;;;;;;;2.40;1.80;;;25.70;53.20;;;;;;4939733;29;20209;-69
2023/07/25 10:02:09;;;;;;;1.60;1.50;;;25.70;53.30;;;;;;4939796;29;20249;-69
2023/07/25 10:04:37;;;;;;;2.00;1.73;;;25.70;53.90;;;;;;4956390;29;20174;-69
2023/07/25 10:07:03;;;;;;;1.60;1.43;;;25.70;53.30;;;;;;4957011;29;20414;-70
2023/07/25 10:09:30;;;;;;;2.70;2.00;;;25.70;53.30;;;;;;4957123;29;20496;-69
2023/07/25 10:11:56;;;;;;;2.23;2.00;;;25.70;53.40;;;;;;4939530;29;20418;-70
2023/07/25 10:14:22;;;;;;;1.80;1.70;;;25.70;53.40;;;;;;4956753;29;20410;-70
2023/07/25 10:16:48;;;;;;;2.07;1.63;;;25.70;53.40;;;;;;4939563;29;20422;-70
2023/07/25 10:19:15;;;;;;;3.20;1.80;;;25.70;53.40;;;;;;4939224;29;20210;-69
2023/07/25 10:21:49;;;;;;;2.13;1.60;;;25.70;53.40;;;;;;4939771;29;20794;-69
2023/07/25 10:24:15;;;;;;;3.97;1.93;;;25.70;53.40;;;;;;4956647;29;20409;-69
2023/07/25 10:26:58;;;;;;;3.27;2.20;;;25.70;53.40;;;;;;4956031;29;20411;-69
2023/07/25 10:29:43;;;;;;;2.23;1.77;;;25.70;53.40;;;;;;4956166;29;20782;-69
2023/07/25 10:32:14;;;;;;;2.47;2.10;;;25.70;53.50;;;;;;4956426;29;20512;-70
2023/07/25 10:34:51;;;;;;;2.23;2.03;;;25.80;53.50;;;;;;4956796;29;20946;-70
2023/07/25 10:37:27;;;;;;;3.10;2.80;;;25.80;53.50;;;;;;4956473;29;20433;-70
2023/07/25 10:40:14;;;;;;;3.33;2.20;;;25.70;53.50;;;;;;4956516;29;20989;-69
2023/07/25 10:42:57;;;;;;;2.53;1.97;;;25.70;53.50;;;;;;4956483;29;20858;-69
2023/07/25 10:45:45;;;;;;;3.20;2.40;;;25.70;53.50;;;;;;4956311;29;20406;-69
2023/07/25 10:48:47;;;;;;;2.87;2.00;;;25.80;53.50;;;;;;4949896;28;20426;-70
2023/07/25 10:51:16;;;;;;;5.67;3.20;;;25.70;53.50;;;;;;4949326;29;20426;-67
2023/07/25 10:54:04;;;;;;;11.80;5.77;;;25.70;53.60;;;;;;4956193;29;20406;-70
2023/07/25 10:56:30;;;;;;;48.47;17.13;;;25.70;53.50;;;;;;4956047;29;20937;-69
2023/07/25 10:59:09;;;;;;;60.70;20.30;;;25.70;53.60;;;;;;4955810;29;20461;-69
2023/07/25 11:01:43;;;;;;;60.67;23.10;;;25.70;53.60;;;;;;4956194;29;20154;-68
2023/07/25 11:04:31;;;;;;;74.97;28.73;;;25.70;53.60;;;;;;4956165;29;20538;-69
2023/07/25 11:07:11;;;;;;;74.00;28.30;;;25.70;53.60;;;;;;4955839;29;20414;-69
2023/07/25 11:09:44;;;;;;;93.67;30.90;;;25.80;53.60;;;;;;4955712;29;20810;-69
2023/07/25 11:12:11;;;;;;;77.00;31.40;;;25.70;53.60;;;;;;4955849;29;20923;-69
2023/07/25 11:14:44;;;;;;;74.93;29.43;;;25.70;53.70;;;;;;4954444;28;20425;-69
2023/07/25 11:17:11;;;;;;;81.60;28.60;;;25.70;53.60;;;;;;4938004;29;20410;-69
2023/07/25 11:19:36;;;;;;;72.83;26.97;;;25.70;53.60;;;;;;4955286;29;20461;-69
2023/07/25 11:22:11;;;;;;;51.77;22.70;;;25.80;53.70;;;;;;4955686;29;20829;-69
2023/07/25 11:24:44;;;;;;;54.80;19.87;;;25.70;53.60;;;;;;4955387;29;20619;-69
2023/07/25 11:27:11;;;;;;;49.43;20.90;;;25.80;53.60;;;;;;4955466;29;20782;-70
2023/07/25 11:29:37;;;;;;;52.40;19.90;;;25.70;53.60;;;;;;4955174;29;20441;-69
2023/07/25 11:32:02;;;;;;;33.87;16.73;;;25.80;53.60;;;;;;4955037;29;20854;-69
2023/07/25 11:34:28;;;;;;;46.70;16.70;;;25.80;53.60;;;;;;4955067;29;20183;-69
2023/07/25 11:36:54;;;;;;;37.30;15.03;;;25.80;53.50;;;;;;4937819;29;20182;-69
2023/07/25 11:39:21;;;;;;;29.60;13.20;;;25.80;53.50;;;;;;4955045;29;20553;-69
2023/07/25 11:41:47;;;;;;;31.93;13.40;;;25.80;53.40;;;;;;4954749;29;20175;-69
2023/07/25 11:44:15;;;;;;;25.73;11.57;;;25.80;53.40;;;;;;4954978;29;20414;-70
2023/07/25 11:46:44;;;;;;;27.20;12.90;;;25.80;53.40;;;;;;4955248;29;20590;-68
2023/07/25 11:49:11;;;;;;;30.47;12.67;;;25.80;53.30;;;;;;4954726;29;20444;-69
2023/07/25 11:51:38;;;;;;;37.60;13.33;;;25.80;53.30;;;;;;4954937;29;20445;-70
2023/07/25 11:54:06;;;;;;;27.70;11.70;;;25.80;53.20;;;;;;4954677;29;20461;-69
2023/07/25 11:56:33;;;;;;;24.40;11.40;;;25.80;53.20;;;;;;4937818;29;20466;-70
2023/07/25 11:59:00;;;;;;;24.30;9.87;;;25.80;53.30;;;;;;4953988;29;20500;-69
2023/07/25 12:01:31;;;;;;;19.57;10.63;;;25.80;53.30;;;;;;4937328;29;20469;-69
2023/07/25 12:04:00;;;;;;;18.50;9.90;;;25.80;53.30;;;;;;4937643;29;20553;-69
2023/07/25 12:06:27;;;;;;;16.40;9.10;;;25.80;53.30;;;;;;4937988;29;20748;-69
2023/07/25 12:08:54;;;;;;;19.93;7.70;;;25.80;53.30;;;;;;4937683;29;20957;-70
2023/07/25 12:11:19;;;;;;;10.60;7.43;;;25.80;53.30;;;;;;4954635;29;20429;-69
2023/07/25 12:13:57;;;;;;;13.90;6.70;;;25.80;53.30;;;;;;4954454;29;20425;-70
2023/07/25 12:16:36;;;;;;;10.97;6.20;;;25.80;53.30;;;;;;4954430;29;20174;-69
2023/07/25 12:19:04;;;;;;;15.20;6.50;;;25.80;53.40;;;;;;4937297;29;20493;-68
2023/07/25 12:21:31;;;;;;;9.03;5.43;;;25.80;53.40;;;;;;4954547;29;20422;-69
2023/07/25 12:24:01;;;;;;;9.17;5.60;;;25.80;53.50;;;;;;4954768;29;20421;-69
2023/07/25 12:26:27;;;;;;;13.10;4.73;;;25.80;53.50;;;;;;4954203;29;20414;-69
2023/07/25 12:28:53;;;;;;;8.80;5.27;;;25.80;53.50;;;;;;4954395;29;20410;-69
2023/07/25 12:31:20;;;;;;;9.50;4.23;;;25.80;53.60;;;;;;4954370;28;20453;-70
2023/07/25 12:33:48;;;;;;;6.50;4.90;;;25.80;53.50;;;;;;4954361;29;20923;-69
2023/07/25 12:36:15;;;;;;;10.07;5.40;;;25.80;53.50;;;;;;4954227;29;20835;-69
2023/07/25 12:38:41;;;;;;;9.47;4.60;;;25.80;53.60;;;;;;4936999;29;20573;-70
2023/07/25 12:41:07;;;;;;;9.97;5.40;;;25.80;53.60;;;;;;4954023;29;20430;-69
2023/07/25 12:43:35;;;;;;;9.30;5.00;;;25.80;53.60;;;;;;4954482;29;20410;-70
2023/07/25 12:46:02;;;;;;;8.07;4.43;;;25.80;53.50;;;;;;4954200;29;20173;-70